sensor_id;sensor_type;location;lat;lon;timestamp;P1;durP1;ratioP1;P2;durP2;ratioP2
41436;SDS011;27178;49.460;10.850;2022-11-04T00:01:32;9.63;;;7.20;;
41436;SDS011;27178;49.460;10.850;2022-11-04T00:04:04;10.20;;;8.20;;
41436;SDS011;27178;49.460;10.850;2022-11-04T00:06:33;10.82;;;7.60;;
41436;SDS011;27178;49.460;10.850;2022-11-04T00:09:03;8.30;;;7.50;;
41436;SDS011;27178;49.460;10.850;2022-11-04T00:11:32;8.68;;;7.53;;
41436;SDS011;27178;49.460;10.850;2022-11-04T00:14:18;9.40;;;8.40;;
41436;SDS011;27178;49.460;10.850;2022-11-04T00:16:46;9.77;;;7.68;;
41436;SDS011;27178;49.460;10.850;2022-11-04T00:19:32;8.30;;;7.50;;
41436;SDS011;27178;49.460;10.850;2022-11-04T00:22:22;8.00;;;7.20;;
41436;SDS011;27178;49.460;10.850;2022-11-04T00:25:07;11.35;;;7.60;;
41436;SDS011;27178;49.460;10.850;2022-11-04T00:28:00;8.32;;;7.18;;
41436;SDS011;27178;49.460;10.850;2022-11-04T00:30:47;8.48;;;6.53;;
41436;SDS011;27178;49.460;10.850;2022-11-04T00:33:15;6.88;;;6.18;;
41436;SDS011;27178;49.460;10.850;2022-11-04T00:35:53;7.57;;;6.55;;
41436;SDS011;27178;49.460;10.850;2022-11-04T00:38:24;6.40;;;5.80;;
41436;SDS011;27178;49.460;10.850;2022-11-04T00:40:57;5.82;;;5.32;;
41436;SDS011;27178;49.460;10.850;2022-11-04T00:43:25;6.00;;;4.90;;
41436;SDS011;27178;49.460;10.850;2022-11-04T00:45:53;5.38;;;4.88;;
41436;SDS011;27178;49.460;10.850;2022-11-04T00:48:21;4.68;;;4.28;;
41436;SDS011;27178;49.460;10.850;2022-11-04T00:50:49;5.10;;;4.28;;
41436;SDS011;27178;49.460;10.850;2022-11-04T00:53:18;5.45;;;4.55;;
41436;SDS011;27178;49.460;10.850;2022-11-04T00:55:47;4.65;;;3.83;;
41436;SDS011;27178;49.460;10.850;2022-11-04T00:58:15;4.28;;;3.95;;
41436;SDS011;27178;49.460;10.850;2022-11-04T01:00:43;3.75;;;3.45;;
41436;SDS011;27178;49.460;10.850;2022-11-04T01:03:12;5.78;;;3.55;;
41436;SDS011;27178;49.460;10.850;2022-11-04T01:05:40;5.47;;;3.55;;
41436;SDS011;27178;49.460;10.850;2022-11-04T01:08:08;3.03;;;2.83;;
41436;SDS011;27178;49.460;10.850;2022-11-04T01:10:36;3.20;;;2.83;;
41436;SDS011;27178;49.460;10.850;2022-11-04T01:13:11;3.63;;;3.33;;
41436;SDS011;27178;49.460;10.850;2022-11-04T01:15:39;3.25;;;2.95;;
41436;SDS011;27178;49.460;10.850;2022-11-04T01:18:07;3.97;;;3.10;;
41436;SDS011;27178;49.460;10.850;2022-11-04T01:20:36;2.95;;;2.75;;
41436;SDS011;27178;49.460;10.850;2022-11-04T01:23:04;2.80;;;2.60;;
41436;SDS011;27178;49.460;10.850;2022-11-04T01:25:33;2.28;;;2.10;;
41436;SDS011;27178;49.460;10.850;2022-11-04T01:28:01;2.60;;;2.40;;
41436;SDS011;27178;49.460;10.850;2022-11-04T01:30:31;2.55;;;2.35;;
41436;SDS011;27178;49.460;10.850;2022-11-04T01:32:59;2.50;;;2.30;;
41436;SDS011;27178;49.460;10.850;2022-11-04T01:35:27;2.10;;;2.00;;
41436;SDS011;27178;49.460;10.850;2022-11-04T01:37:56;4.43;;;2.38;;
41436;SDS011;27178;49.460;10.850;2022-11-04T01:40:25;2.22;;;2.03;;
41436;SDS011;27178;49.460;10.850;2022-11-04T01:42:53;2.55;;;2.35;;
41436;SDS011;27178;49.460;10.850;2022-11-04T01:45:21;1.70;;;1.60;;
41436;SDS011;27178;49.460;10.850;2022-11-04T01:47:53;1.80;;;1.70;;
41436;SDS011;27178;49.460;10.850;2022-11-04T01:50:27;2.30;;;2.10;;
41436;SDS011;27178;49.460;10.850;2022-11-04T01:52:57;2.58;;;2.15;;
41436;SDS011;27178;49.460;10.850;2022-11-04T01:55:32;1.75;;;1.65;;
41436;SDS011;27178;49.460;10.850;2022-11-04T01:58:06;2.90;;;1.67;;
41436;SDS011;27178;49.460;10.850;2022-11-04T02:00:37;1.52;;;1.42;;
41436;SDS011;27178;49.460;10.850;2022-11-04T02:03:08;1.60;;;1.50;;
41436;SDS011;27178;49.460;10.850;2022-11-04T02:05:42;1.42;;;1.33;;
41436;SDS011;27178;49.460;10.850;2022-11-04T02:08:10;1.85;;;1.60;;
41436;SDS011;27178;49.460;10.850;2022-11-04T02:10:41;1.88;;;1.77;;
41436;SDS011;27178;49.460;10.850;2022-11-04T02:13:15;1.63;;;1.52;;
41436;SDS011;27178;49.460;10.850;2022-11-04T02:15:43;1.45;;;1.35;;
41436;SDS011;27178;49.460;10.850;2022-11-04T02:18:23;1.60;;;1.50;;
41436;SDS011;27178;49.460;10.850;2022-11-04T02:21:17;1.80;;;1.70;;
41436;SDS011;27178;49.460;10.850;2022-11-04T02:24:16;1.65;;;1.20;;
41436;SDS011;27178;49.460;10.850;2022-11-04T02:27:15;1.70;;;1.60;;
41436;SDS011;27178;49.460;10.850;2022-11-04T02:29:55;1.67;;;1.50;;
41436;SDS011;27178;49.460;10.850;2022-11-04T02:32:49;2.55;;;1.60;;
41436;SDS011;27178;49.460;10.850;2022-11-04T02:35:33;2.03;;;1.50;;
41436;SDS011;27178;49.460;10.850;2022-11-04T02:38:13;1.60;;;1.50;;
41436;SDS011;27178;49.460;10.850;2022-11-04T02:40:51;1.40;;;1.30;;
41436;SDS011;27178;49.460;10.850;2022-11-04T02:43:34;1.50;;;1.40;;
41436;SDS011;27178;49.460;10.850;2022-11-04T02:46:12;2.70;;;1.33;;
41436;SDS011;27178;49.460;10.850;2022-11-04T02:48:45;1.58;;;1.48;;
41436;SDS011;27178;49.460;10.850;2022-11-04T02:51:17;2.33;;;1.48;;
41436;SDS011;27178;49.460;10.850;2022-11-04T02:53:51;2.35;;;1.20;;
41436;SDS011;27178;49.460;10.850;2022-11-04T02:56:28;1.35;;;1.25;;
41436;SDS011;27178;49.460;10.850;2022-11-04T02:59:00;1.40;;;1.30;;
41436;SDS011;27178;49.460;10.850;2022-11-04T03:01:34;1.50;;;1.40;;
41436;SDS011;27178;49.460;10.850;2022-11-04T03:04:06;1.63;;;1.40;;
41436;SDS011;27178;49.460;10.850;2022-11-04T03:06:38;1.95;;;1.30;;
41436;SDS011;27178;49.460;10.850;2022-11-04T03:09:10;1.50;;;1.20;;
41436;SDS011;27178;49.460;10.850;2022-11-04T03:11:43;1.10;;;1.10;;
41436;SDS011;27178;49.460;10.850;2022-11-04T03:14:15;0.95;;;0.95;;
41436;SDS011;27178;49.460;10.850;2022-11-04T03:16:48;2.17;;;1.20;;
41436;SDS011;27178;49.460;10.850;2022-11-04T03:19:22;2.63;;;1.45;;
41436;SDS011;27178;49.460;10.850;2022-11-04T03:21:58;1.38;;;1.27;;
41436;SDS011;27178;49.460;10.850;2022-11-04T03:24:30;1.25;;;1.15;;
41436;SDS011;27178;49.460;10.850;2022-11-04T03:26:59;0.90;;;0.90;;
41436;SDS011;27178;49.460;10.850;2022-11-04T03:29:31;1.52;;;1.42;;
41436;SDS011;27178;49.460;10.850;2022-11-04T03:32:05;1.40;;;1.30;;
41436;SDS011;27178;49.460;10.850;2022-11-04T03:34:40;1.23;;;1.13;;
41436;SDS011;27178;49.460;10.850;2022-11-04T03:37:08;1.30;;;1.20;;
41436;SDS011;27178;49.460;10.850;2022-11-04T03:39:37;1.55;;;1.45;;
41436;SDS011;27178;49.460;10.850;2022-11-04T03:42:07;1.23;;;1.13;;
41436;SDS011;27178;49.460;10.850;2022-11-04T03:44:47;1.73;;;1.20;;
41436;SDS011;27178;49.460;10.850;2022-11-04T03:47:18;1.30;;;1.20;;
41436;SDS011;27178;49.460;10.850;2022-11-04T03:49:48;3.83;;;1.10;;
41436;SDS011;27178;49.460;10.850;2022-11-04T03:52:20;1.08;;;0.98;;
41436;SDS011;27178;49.460;10.850;2022-11-04T03:54:48;1.40;;;1.27;;
41436;SDS011;27178;49.460;10.850;2022-11-04T03:57:20;1.50;;;1.35;;
41436;SDS011;27178;49.460;10.850;2022-11-04T04:00:00;1.45;;;1.13;;
41436;SDS011;27178;49.460;10.850;2022-11-04T04:02:44;1.50;;;1.40;;
41436;SDS011;27178;49.460;10.850;2022-11-04T04:05:28;1.55;;;1.40;;
41436;SDS011;27178;49.460;10.850;2022-11-04T04:08:01;1.38;;;1.27;;
41436;SDS011;27178;49.460;10.850;2022-11-04T04:10:39;2.08;;;1.17;;
41436;SDS011;27178;49.460;10.850;2022-11-04T04:13:16;1.05;;;1.05;;
41436;SDS011;27178;49.460;10.850;2022-11-04T04:15:49;1.00;;;0.95;;
41436;SDS011;27178;49.460;10.850;2022-11-04T04:18:25;1.38;;;1.27;;
41436;SDS011;27178;49.460;10.850;2022-11-04T04:20:58;1.48;;;1.25;;
41436;SDS011;27178;49.460;10.850;2022-11-04T04:23:30;1.40;;;1.30;;
41436;SDS011;27178;49.460;10.850;2022-11-04T04:26:19;1.30;;;1.20;;
41436;SDS011;27178;49.460;10.850;2022-11-04T04:29:07;1.13;;;1.02;;
41436;SDS011;27178;49.460;10.850;2022-11-04T04:31:37;1.38;;;1.13;;
41436;SDS011;27178;49.460;10.850;2022-11-04T04:34:18;1.20;;;1.10;;
41436;SDS011;27178;49.460;10.850;2022-11-04T04:36:49;1.45;;;1.15;;
41436;SDS011;27178;49.460;10.850;2022-11-04T04:39:22;1.30;;;1.20;;
41436;SDS011;27178;49.460;10.850;2022-11-04T04:42:12;3.03;;;1.65;;
41436;SDS011;27178;49.460;10.850;2022-11-04T04:44:58;4.13;;;1.60;;
41436;SDS011;27178;49.460;10.850;2022-11-04T04:47:43;1.70;;;1.60;;
41436;SDS011;27178;49.460;10.850;2022-11-04T04:50:15;1.23;;;1.13;;
41436;SDS011;27178;49.460;10.850;2022-11-04T04:52:45;0.93;;;0.93;;
41436;SDS011;27178;49.460;10.850;2022-11-04T04:55:15;1.90;;;1.52;;
41436;SDS011;27178;49.460;10.850;2022-11-04T04:57:44;2.15;;;1.40;;
41436;SDS011;27178;49.460;10.850;2022-11-04T05:00:14;2.13;;;1.52;;
41436;SDS011;27178;49.460;10.850;2022-11-04T05:02:43;1.98;;;1.77;;
41436;SDS011;27178;49.460;10.850;2022-11-04T05:05:11;1.83;;;1.50;;
41436;SDS011;27178;49.460;10.850;2022-11-04T05:07:46;1.35;;;1.25;;
41436;SDS011;27178;49.460;10.850;2022-11-04T05:10:15;2.45;;;1.33;;
41436;SDS011;27178;49.460;10.850;2022-11-04T05:12:43;2.28;;;1.35;;
41436;SDS011;27178;49.460;10.850;2022-11-04T05:15:29;1.38;;;1.27;;
41436;SDS011;27178;49.460;10.850;2022-11-04T05:17:58;2.05;;;1.40;;
41436;SDS011;27178;49.460;10.850;2022-11-04T05:20:31;1.88;;;1.38;;
41436;SDS011;27178;49.460;10.850;2022-11-04T05:22:59;1.25;;;1.15;;
41436;SDS011;27178;49.460;10.850;2022-11-04T05:25:28;2.28;;;1.25;;
41436;SDS011;27178;49.460;10.850;2022-11-04T05:27:58;1.20;;;1.10;;
41436;SDS011;27178;49.460;10.850;2022-11-04T05:30:27;1.17;;;1.10;;
41436;SDS011;27178;49.460;10.850;2022-11-04T05:32:56;2.17;;;1.30;;
41436;SDS011;27178;49.460;10.850;2022-11-04T05:35:31;1.80;;;1.60;;
41436;SDS011;27178;49.460;10.850;2022-11-04T05:38:00;2.30;;;1.63;;
41436;SDS011;27178;49.460;10.850;2022-11-04T05:40:29;1.35;;;1.30;;
41436;SDS011;27178;49.460;10.850;2022-11-04T05:42:57;2.78;;;1.58;;
41436;SDS011;27178;49.460;10.850;2022-11-04T05:45:26;2.70;;;1.58;;
41436;SDS011;27178;49.460;10.850;2022-11-04T05:47:56;2.20;;;1.52;;
41436;SDS011;27178;49.460;10.850;2022-11-04T05:50:26;2.40;;;1.50;;
41436;SDS011;27178;49.460;10.850;2022-11-04T05:52:56;2.85;;;1.63;;
41436;SDS011;27178;49.460;10.850;2022-11-04T05:55:25;1.50;;;1.40;;
41436;SDS011;27178;49.460;10.850;2022-11-04T05:57:54;1.73;;;1.63;;
41436;SDS011;27178;49.460;10.850;2022-11-04T06:00:24;1.67;;;1.55;;
41436;SDS011;27178;49.460;10.850;2022-11-04T06:02:53;2.63;;;1.77;;
41436;SDS011;27178;49.460;10.850;2022-11-04T06:05:22;1.50;;;1.40;;
41436;SDS011;27178;49.460;10.850;2022-11-04T06:07:51;1.95;;;1.30;;
41436;SDS011;27178;49.460;10.850;2022-11-04T06:10:21;2.45;;;1.45;;
41436;SDS011;27178;49.460;10.850;2022-11-04T06:12:49;2.15;;;1.52;;
41436;SDS011;27178;49.460;10.850;2022-11-04T06:15:17;2.75;;;1.50;;
41436;SDS011;27178;49.460;10.850;2022-11-04T06:17:46;2.17;;;1.50;;
41436;SDS011;27178;49.460;10.850;2022-11-04T06:20:14;1.40;;;1.30;;
41436;SDS011;27178;49.460;10.850;2022-11-04T06:22:42;2.17;;;1.80;;
41436;SDS011;27178;49.460;10.850;2022-11-04T06:25:11;2.70;;;1.52;;
41436;SDS011;27178;49.460;10.850;2022-11-04T06:27:40;1.92;;;1.73;;
41436;SDS011;27178;49.460;10.850;2022-11-04T06:30:09;1.90;;;1.70;;
41436;SDS011;27178;49.460;10.850;2022-11-04T06:32:41;2.15;;;1.50;;
41436;SDS011;27178;49.460;10.850;2022-11-04T06:35:15;2.38;;;1.40;;
41436;SDS011;27178;49.460;10.850;2022-11-04T06:37:45;1.90;;;1.50;;
41436;SDS011;27178;49.460;10.850;2022-11-04T06:40:18;1.45;;;1.35;;
41436;SDS011;27178;49.460;10.850;2022-11-04T06:42:48;4.80;;;1.65;;
41436;SDS011;27178;49.460;10.850;2022-11-04T06:45:16;2.80;;;1.50;;
41436;SDS011;27178;49.460;10.850;2022-11-04T06:47:44;3.10;;;1.98;;
41436;SDS011;27178;49.460;10.850;2022-11-04T06:50:13;2.13;;;1.70;;
41436;SDS011;27178;49.460;10.850;2022-11-04T06:52:43;2.20;;;1.45;;
41436;SDS011;27178;49.460;10.850;2022-11-04T06:55:14;1.55;;;1.40;;
41436;SDS011;27178;49.460;10.850;2022-11-04T06:57:42;2.88;;;1.52;;
41436;SDS011;27178;49.460;10.850;2022-11-04T07:00:12;2.30;;;1.63;;
41436;SDS011;27178;49.460;10.850;2022-11-04T07:02:41;1.58;;;1.38;;
41436;SDS011;27178;49.460;10.850;2022-11-04T07:05:09;2.15;;;1.40;;
41436;SDS011;27178;49.460;10.850;2022-11-04T07:07:38;1.48;;;1.35;;
41436;SDS011;27178;49.460;10.850;2022-11-04T07:10:07;1.40;;;1.30;;
41436;SDS011;27178;49.460;10.850;2022-11-04T07:12:39;1.67;;;1.20;;
41436;SDS011;27178;49.460;10.850;2022-11-04T07:15:08;3.88;;;2.28;;
41436;SDS011;27178;49.460;10.850;2022-11-04T07:17:42;2.78;;;2.20;;
41436;SDS011;27178;49.460;10.850;2022-11-04T07:20:11;2.33;;;1.50;;
41436;SDS011;27178;49.460;10.850;2022-11-04T07:22:44;3.13;;;1.33;;
41436;SDS011;27178;49.460;10.850;2022-11-04T07:25:16;2.50;;;1.50;;
41436;SDS011;27178;49.460;10.850;2022-11-04T07:27:44;2.78;;;1.52;;
41436;SDS011;27178;49.460;10.850;2022-11-04T07:30:12;2.38;;;1.50;;
41436;SDS011;27178;49.460;10.850;2022-11-04T07:32:42;3.15;;;1.42;;
41436;SDS011;27178;49.460;10.850;2022-11-04T07:35:11;2.47;;;1.20;;
41436;SDS011;27178;49.460;10.850;2022-11-04T07:37:39;1.58;;;1.40;;
41436;SDS011;27178;49.460;10.850;2022-11-04T07:40:08;2.38;;;1.50;;
41436;SDS011;27178;49.460;10.850;2022-11-04T07:42:36;2.58;;;1.67;;
41436;SDS011;27178;49.460;10.850;2022-11-04T07:45:04;1.73;;;1.20;;
41436;SDS011;27178;49.460;10.850;2022-11-04T07:47:36;4.72;;;1.30;;
41436;SDS011;27178;49.460;10.850;2022-11-04T07:50:06;1.80;;;1.25;;
41436;SDS011;27178;49.460;10.850;2022-11-04T07:52:36;4.57;;;1.88;;
41436;SDS011;27178;49.460;10.850;2022-11-04T07:55:04;2.03;;;1.20;;
41436;SDS011;27178;49.460;10.850;2022-11-04T07:57:34;3.13;;;1.60;;
41436;SDS011;27178;49.460;10.850;2022-11-04T08:00:02;4.30;;;1.90;;
41436;SDS011;27178;49.460;10.850;2022-11-04T08:02:32;3.67;;;1.73;;
41436;SDS011;27178;49.460;10.850;2022-11-04T08:05:00;5.07;;;2.05;;
41436;SDS011;27178;49.460;10.850;2022-11-04T08:07:30;3.75;;;1.85;;
41436;SDS011;27178;49.460;10.850;2022-11-04T08:09:58;5.95;;;1.52;;
41436;SDS011;27178;49.460;10.850;2022-11-04T08:12:27;3.38;;;1.80;;
41436;SDS011;27178;49.460;10.850;2022-11-04T08:14:57;2.53;;;1.63;;
41436;SDS011;27178;49.460;10.850;2022-11-04T08:17:25;3.85;;;1.50;;
41436;SDS011;27178;49.460;10.850;2022-11-04T08:19:54;5.70;;;1.80;;
41436;SDS011;27178;49.460;10.850;2022-11-04T08:22:22;2.13;;;1.42;;
41436;SDS011;27178;49.460;10.850;2022-11-04T08:24:59;2.55;;;1.35;;
41436;SDS011;27178;49.460;10.850;2022-11-04T08:27:28;3.08;;;1.38;;
41436;SDS011;27178;49.460;10.850;2022-11-04T08:29:56;3.00;;;1.45;;
41436;SDS011;27178;49.460;10.850;2022-11-04T08:32:24;1.75;;;1.30;;
41436;SDS011;27178;49.460;10.850;2022-11-04T08:34:53;1.85;;;1.10;;
41436;SDS011;27178;49.460;10.850;2022-11-04T08:37:22;3.92;;;1.25;;
41436;SDS011;27178;49.460;10.850;2022-11-04T08:39:49;2.15;;;1.20;;
41436;SDS011;27178;49.460;10.850;2022-11-04T08:42:19;1.92;;;1.27;;
41436;SDS011;27178;49.460;10.850;2022-11-04T08:44:49;1.83;;;1.45;;
41436;SDS011;27178;49.460;10.850;2022-11-04T08:47:17;4.03;;;1.63;;
41436;SDS011;27178;49.460;10.850;2022-11-04T08:49:46;1.45;;;1.35;;
41436;SDS011;27178;49.460;10.850;2022-11-04T08:52:14;3.28;;;1.50;;
41436;SDS011;27178;49.460;10.850;2022-11-04T08:54:43;2.85;;;1.40;;
41436;SDS011;27178;49.460;10.850;2022-11-04T08:57:11;1.75;;;1.60;;
41436;SDS011;27178;49.460;10.850;2022-11-04T08:59:41;2.90;;;1.60;;
41436;SDS011;27178;49.460;10.850;2022-11-04T09:02:11;5.40;;;1.83;;
41436;SDS011;27178;49.460;10.850;2022-11-04T09:04:41;3.10;;;1.55;;
41436;SDS011;27178;49.460;10.850;2022-11-04T09:07:10;2.75;;;1.60;;
41436;SDS011;27178;49.460;10.850;2022-11-04T09:09:39;2.45;;;1.60;;
41436;SDS011;27178;49.460;10.850;2022-11-04T09:12:07;2.67;;;1.77;;
41436;SDS011;27178;49.460;10.850;2022-11-04T09:14:36;2.80;;;1.23;;
41436;SDS011;27178;49.460;10.850;2022-11-04T09:17:06;2.30;;;1.65;;
41436;SDS011;27178;49.460;10.850;2022-11-04T09:19:34;4.40;;;2.17;;
41436;SDS011;27178;49.460;10.850;2022-11-04T09:22:03;3.95;;;1.83;;
41436;SDS011;27178;49.460;10.850;2022-11-04T09:24:32;2.28;;;1.50;;
41436;SDS011;27178;49.460;10.850;2022-11-04T09:27:00;3.45;;;1.55;;
41436;SDS011;27178;49.460;10.850;2022-11-04T09:29:29;2.85;;;1.90;;
41436;SDS011;27178;49.460;10.850;2022-11-04T09:31:59;3.65;;;1.85;;
41436;SDS011;27178;49.460;10.850;2022-11-04T09:34:29;2.25;;;1.48;;
41436;SDS011;27178;49.460;10.850;2022-11-04T09:36:57;1.75;;;1.23;;
41436;SDS011;27178;49.460;10.850;2022-11-04T09:39:25;6.35;;;2.03;;
41436;SDS011;27178;49.460;10.850;2022-11-04T09:41:56;1.55;;;1.45;;
41436;SDS011;27178;49.460;10.850;2022-11-04T09:44:42;4.13;;;1.98;;
41436;SDS011;27178;49.460;10.850;2022-11-04T09:47:36;3.10;;;1.58;;
41436;SDS011;27178;49.460;10.850;2022-11-04T09:50:13;5.72;;;1.52;;
41436;SDS011;27178;49.460;10.850;2022-11-04T09:52:46;2.97;;;1.80;;
41436;SDS011;27178;49.460;10.850;2022-11-04T09:55:19;1.67;;;1.33;;
41436;SDS011;27178;49.460;10.850;2022-11-04T09:57:51;4.18;;;1.52;;
41436;SDS011;27178;49.460;10.850;2022-11-04T10:00:23;2.53;;;1.30;;
41436;SDS011;27178;49.460;10.850;2022-11-04T10:02:54;2.35;;;1.63;;
41436;SDS011;27178;49.460;10.850;2022-11-04T10:05:48;1.67;;;1.40;;
41436;SDS011;27178;49.460;10.850;2022-11-04T10:08:33;2.53;;;1.75;;
41436;SDS011;27178;49.460;10.850;2022-11-04T10:11:12;2.47;;;1.45;;
41436;SDS011;27178;49.460;10.850;2022-11-04T10:13:53;3.05;;;1.90;;
41436;SDS011;27178;49.460;10.850;2022-11-04T10:16:42;3.10;;;1.80;;
41436;SDS011;27178;49.460;10.850;2022-11-04T10:19:25;2.47;;;1.77;;
41436;SDS011;27178;49.460;10.850;2022-11-04T10:22:14;2.92;;;1.63;;
41436;SDS011;27178;49.460;10.850;2022-11-04T10:24:56;3.70;;;1.58;;
41436;SDS011;27178;49.460;10.850;2022-11-04T10:27:36;3.65;;;1.30;;
41436;SDS011;27178;49.460;10.850;2022-11-04T10:30:13;2.95;;;1.40;;
41436;SDS011;27178;49.460;10.850;2022-11-04T10:32:46;2.92;;;1.40;;
41436;SDS011;27178;49.460;10.850;2022-11-04T10:35:24;3.10;;;1.20;;
41436;SDS011;27178;49.460;10.850;2022-11-04T10:38:00;3.50;;;1.35;;
41436;SDS011;27178;49.460;10.850;2022-11-04T10:40:43;2.22;;;1.38;;
41436;SDS011;27178;49.460;10.850;2022-11-04T10:43:15;3.05;;;1.50;;
41436;SDS011;27178;49.460;10.850;2022-11-04T10:45:54;4.97;;;1.40;;
41436;SDS011;27178;49.460;10.850;2022-11-04T10:48:34;6.25;;;1.52;;
41436;SDS011;27178;49.460;10.850;2022-11-04T10:51:07;1.60;;;1.25;;
41436;SDS011;27178;49.460;10.850;2022-11-04T10:53:37;3.13;;;1.27;;
41436;SDS011;27178;49.460;10.850;2022-11-04T10:56:05;1.88;;;1.05;;
41436;SDS011;27178;49.460;10.850;2022-11-04T10:58:44;2.47;;;1.30;;
41436;SDS011;27178;49.460;10.850;2022-11-04T11:01:24;3.00;;;1.60;;
41436;SDS011;27178;49.460;10.850;2022-11-04T11:03:55;2.42;;;1.10;;
41436;SDS011;27178;49.460;10.850;2022-11-04T11:06:24;3.25;;;1.30;;
41436;SDS011;27178;49.460;10.850;2022-11-04T11:08:57;2.05;;;1.40;;
41436;SDS011;27178;49.460;10.850;2022-11-04T11:11:38;2.05;;;1.42;;
41436;SDS011;27178;49.460;10.850;2022-11-04T11:14:17;2.42;;;1.02;;
41436;SDS011;27178;49.460;10.850;2022-11-04T11:16:47;3.85;;;1.40;;
41436;SDS011;27178;49.460;10.850;2022-11-04T11:19:16;1.33;;;1.20;;
41436;SDS011;27178;49.460;10.850;2022-11-04T11:21:46;3.30;;;1.88;;
41436;SDS011;27178;49.460;10.850;2022-11-04T11:24:21;2.95;;;1.92;;
41436;SDS011;27178;49.460;10.850;2022-11-04T11:26:51;4.13;;;1.38;;
41436;SDS011;27178;49.460;10.850;2022-11-04T11:29:23;2.45;;;1.60;;
41436;SDS011;27178;49.460;10.850;2022-11-04T11:31:53;4.57;;;1.40;;
41436;SDS011;27178;49.460;10.850;2022-11-04T11:34:23;3.17;;;1.42;;
41436;SDS011;27178;49.460;10.850;2022-11-04T11:36:54;2.78;;;1.45;;
41436;SDS011;27178;49.460;10.850;2022-11-04T11:39:25;2.35;;;1.15;;
41436;SDS011;27178;49.460;10.850;2022-11-04T11:41:56;2.05;;;1.25;;
41436;SDS011;27178;49.460;10.850;2022-11-04T11:44:28;2.72;;;1.23;;
41436;SDS011;27178;49.460;10.850;2022-11-04T11:47:01;4.55;;;1.52;;
41436;SDS011;27178;49.460;10.850;2022-11-04T11:49:32;1.90;;;1.20;;
41436;SDS011;27178;49.460;10.850;2022-11-04T11:55:04;1.27;;;1.00;;
41436;SDS011;27178;49.460;10.850;2022-11-04T11:57:40;2.53;;;1.65;;
41436;SDS011;27178;49.460;10.850;2022-11-04T12:00:36;3.00;;;1.55;;
41436;SDS011;27178;49.460;10.850;2022-11-04T12:03:21;1.77;;;1.50;;
41436;SDS011;27178;49.460;10.850;2022-11-04T12:06:19;1.55;;;1.25;;
41436;SDS011;27178;49.460;10.850;2022-11-04T12:09:02;3.90;;;1.90;;
41436;SDS011;27178;49.460;10.850;2022-11-04T12:11:53;2.95;;;1.33;;
41436;SDS011;27178;49.460;10.850;2022-11-04T12:14:41;2.47;;;1.45;;
41436;SDS011;27178;49.460;10.850;2022-11-04T12:17:27;3.10;;;1.42;;
41436;SDS011;27178;49.460;10.850;2022-11-04T12:20:10;3.30;;;1.30;;
41436;SDS011;27178;49.460;10.850;2022-11-04T12:22:53;2.75;;;1.40;;
41436;SDS011;27178;49.460;10.850;2022-11-04T12:25:27;4.15;;;1.48;;
41436;SDS011;27178;49.460;10.850;2022-11-04T12:28:05;2.00;;;0.95;;
41436;SDS011;27178;49.460;10.850;2022-11-04T12:30:46;2.47;;;1.27;;
41436;SDS011;27178;49.460;10.850;2022-11-04T12:33:24;4.00;;;1.55;;
41436;SDS011;27178;49.460;10.850;2022-11-04T12:36:06;2.53;;;1.30;;
41436;SDS011;27178;49.460;10.850;2022-11-04T12:38:59;2.92;;;1.20;;
41436;SDS011;27178;49.460;10.850;2022-11-04T12:41:48;2.67;;;1.38;;
41436;SDS011;27178;49.460;10.850;2022-11-04T12:44:48;2.42;;;1.10;;
41436;SDS011;27178;49.460;10.850;2022-11-04T12:47:30;2.08;;;1.20;;
41436;SDS011;27178;49.460;10.850;2022-11-04T12:50:17;4.07;;;2.03;;
41436;SDS011;27178;49.460;10.850;2022-11-04T12:53:06;2.55;;;1.17;;
41436;SDS011;27178;49.460;10.850;2022-11-04T12:55:57;3.58;;;1.27;;
41436;SDS011;27178;49.460;10.850;2022-11-04T12:58:37;4.60;;;1.50;;
41436;SDS011;27178;49.460;10.850;2022-11-04T13:01:12;3.80;;;1.25;;
41436;SDS011;27178;49.460;10.850;2022-11-04T13:03:46;1.95;;;1.10;;
41436;SDS011;27178;49.460;10.850;2022-11-04T13:06:19;0.98;;;0.98;;
41436;SDS011;27178;49.460;10.850;2022-11-04T13:08:52;2.03;;;1.27;;
41436;SDS011;27178;49.460;10.850;2022-11-04T13:11:27;2.75;;;1.10;;
41436;SDS011;27178;49.460;10.850;2022-11-04T13:14:01;3.13;;;1.15;;
41436;SDS011;27178;49.460;10.850;2022-11-04T13:16:34;2.78;;;1.15;;
41436;SDS011;27178;49.460;10.850;2022-11-04T13:19:06;2.22;;;1.10;;
41436;SDS011;27178;49.460;10.850;2022-11-04T13:21:47;1.27;;;1.15;;
41436;SDS011;27178;49.460;10.850;2022-11-04T13:24:16;1.73;;;1.08;;
41436;SDS011;27178;49.460;10.850;2022-11-04T13:26:49;3.28;;;1.58;;
41436;SDS011;27178;49.460;10.850;2022-11-04T13:29:18;3.38;;;1.23;;
41436;SDS011;27178;49.460;10.850;2022-11-04T13:31:54;2.28;;;1.42;;
41436;SDS011;27178;49.460;10.850;2022-11-04T13:34:32;1.67;;;0.98;;
41436;SDS011;27178;49.460;10.850;2022-11-04T13:37:07;2.45;;;1.10;;
41436;SDS011;27178;49.460;10.850;2022-11-04T13:39:41;1.77;;;0.95;;
41436;SDS011;27178;49.460;10.850;2022-11-04T13:45:17;3.40;;;1.35;;
41436;SDS011;27178;49.460;10.850;2022-11-04T13:47:48;1.92;;;1.08;;
41436;SDS011;27178;49.460;10.850;2022-11-04T13:50:32;2.15;;;1.25;;
41436;SDS011;27178;49.460;10.850;2022-11-04T13:53:02;2.88;;;1.42;;
41436;SDS011;27178;49.460;10.850;2022-11-04T13:55:33;5.32;;;1.40;;
41436;SDS011;27178;49.460;10.850;2022-11-04T13:58:02;2.50;;;1.50;;
41436;SDS011;27178;49.460;10.850;2022-11-04T14:00:33;3.00;;;1.27;;
41436;SDS011;27178;49.460;10.850;2022-11-04T14:06:06;1.95;;;1.17;;
41436;SDS011;27178;49.460;10.850;2022-11-04T14:08:36;1.48;;;0.90;;
41436;SDS011;27178;49.460;10.850;2022-11-04T14:14:52;2.60;;;1.30;;
41436;SDS011;27178;49.460;10.850;2022-11-04T14:20:25;2.38;;;1.40;;
41436;SDS011;27178;49.460;10.850;2022-11-04T14:22:57;2.47;;;1.30;;
41436;SDS011;27178;49.460;10.850;2022-11-04T14:25:28;2.78;;;1.30;;
41436;SDS011;27178;49.460;10.850;2022-11-04T14:28:17;2.50;;;1.40;;
41436;SDS011;27178;49.460;10.850;2022-11-04T14:30:52;4.95;;;2.10;;
41436;SDS011;27178;49.460;10.850;2022-11-04T14:33:28;1.60;;;1.20;;
41436;SDS011;27178;49.460;10.850;2022-11-04T14:36:26;2.83;;;1.40;;
41436;SDS011;27178;49.460;10.850;2022-11-04T14:39:03;1.40;;;0.90;;
41436;SDS011;27178;49.460;10.850;2022-11-04T14:41:53;2.97;;;1.27;;
41436;SDS011;27178;49.460;10.850;2022-11-04T14:44:30;2.20;;;1.17;;
41436;SDS011;27178;49.460;10.850;2022-11-04T14:47:01;6.22;;;1.73;;
41436;SDS011;27178;49.460;10.850;2022-11-04T14:49:45;2.47;;;1.33;;
41436;SDS011;27178;49.460;10.850;2022-11-04T14:52:18;2.95;;;1.15;;
41436;SDS011;27178;49.460;10.850;2022-11-04T14:54:49;2.38;;;1.20;;
41436;SDS011;27178;49.460;10.850;2022-11-04T14:57:23;8.63;;;1.88;;
41436;SDS011;27178;49.460;10.850;2022-11-04T14:59:52;4.35;;;1.52;;
41436;SDS011;27178;49.460;10.850;2022-11-04T15:02:21;2.40;;;1.25;;
41436;SDS011;27178;49.460;10.850;2022-11-04T15:04:54;2.85;;;1.50;;
41436;SDS011;27178;49.460;10.850;2022-11-04T15:07:30;3.80;;;1.42;;
41436;SDS011;27178;49.460;10.850;2022-11-04T15:10:00;2.13;;;1.38;;
41436;SDS011;27178;49.460;10.850;2022-11-04T15:12:44;4.10;;;1.55;;
41436;SDS011;27178;49.460;10.850;2022-11-04T15:15:29;2.80;;;1.60;;
41436;SDS011;27178;49.460;10.850;2022-11-04T15:18:00;3.22;;;1.63;;
41436;SDS011;27178;49.460;10.850;2022-11-04T15:20:33;4.43;;;1.50;;
41436;SDS011;27178;49.460;10.850;2022-11-04T15:23:05;4.13;;;1.60;;
41436;SDS011;27178;49.460;10.850;2022-11-04T15:25:42;2.60;;;1.58;;
41436;SDS011;27178;49.460;10.850;2022-11-04T15:28:16;2.22;;;1.50;;